sensor_id;sensor_type;location;lat;lon;timestamp;temperature;humidity
34784;DHT22;20998;51.388;7.032;2023-05-08T00:15:07;16.10;99.90
34784;DHT22;20998;51.388;7.032;2023-05-08T00:19:59;15.80;99.90
34784;DHT22;20998;51.388;7.032;2023-05-08T00:24:51;15.90;99.90
34784;DHT22;20998;51.388;7.032;2023-05-08T00:29:42;15.80;99.90
34784;DHT22;20998;51.388;7.032;2023-05-08T00:37:00;15.80;99.90
34784;DHT22;20998;51.388;7.032;2023-05-08T00:49:12;15.70;99.90
34784;DHT22;20998;51.388;7.032;2023-05-08T00:51:46;15.50;99.90
34784;DHT22;20998;51.388;7.032;2023-05-08T00:56:42;15.50;99.90
34784;DHT22;20998;51.388;7.032;2023-05-08T00:59:10;15.50;99.90
34784;DHT22;20998;51.388;7.032;2023-05-08T01:04:04;15.60;99.90
34784;DHT22;20998;51.388;7.032;2023-05-08T01:11:40;15.40;99.90
34784;DHT22;20998;51.388;7.032;2023-05-08T01:17:22;15.50;99.90
34784;DHT22;20998;51.388;7.032;2023-05-08T01:30:54;15.60;99.90
34784;DHT22;20998;51.388;7.032;2023-05-08T01:33:29;15.40;99.90
34784;DHT22;20998;51.388;7.032;2023-05-08T01:36:17;15.40;99.90
34784;DHT22;20998;51.388;7.032;2023-05-08T01:41:31;15.40;99.90
34784;DHT22;20998;51.388;7.032;2023-05-08T01:44:17;15.50;99.90
34784;DHT22;20998;51.388;7.032;2023-05-08T01:46:47;15.40;99.90
34784;DHT22;20998;51.388;7.032;2023-05-08T01:49:24;15.30;99.90
34784;DHT22;20998;51.388;7.032;2023-05-08T01:52:05;15.60;99.90
34784;DHT22;20998;51.388;7.032;2023-05-08T01:54:42;15.40;99.90
34784;DHT22;20998;51.388;7.032;2023-05-08T01:57:09;15.30;99.90
34784;DHT22;20998;51.388;7.032;2023-05-08T01:59:37;15.30;99.90
34784;DHT22;20998;51.388;7.032;2023-05-08T02:02:03;15.30;99.90
34784;DHT22;20998;51.388;7.032;2023-05-08T02:04:31;15.20;99.90
34784;DHT22;20998;51.388;7.032;2023-05-08T02:06:58;15.20;99.90
34784;DHT22;20998;51.388;7.032;2023-05-08T02:09:26;15.20;99.90
34784;DHT22;20998;51.388;7.032;2023-05-08T02:11:54;15.20;99.90
34784;DHT22;20998;51.388;7.032;2023-05-08T02:14:21;15.20;99.90
34784;DHT22;20998;51.388;7.032;2023-05-08T02:16:47;15.20;99.90
34784;DHT22;20998;51.388;7.032;2023-05-08T02:19:15;15.10;99.90
34784;DHT22;20998;51.388;7.032;2023-05-08T02:21:43;15.10;99.90
34784;DHT22;20998;51.388;7.032;2023-05-08T02:26:36;15.10;99.90
34784;DHT22;20998;51.388;7.032;2023-05-08T02:33:56;15.00;99.90
34784;DHT22;20998;51.388;7.032;2023-05-08T02:38:51;15.00;99.90
34784;DHT22;20998;51.388;7.032;2023-05-08T02:41:20;15.00;99.90
34784;DHT22;20998;51.388;7.032;2023-05-08T02:49:11;14.90;99.90
34784;DHT22;20998;51.388;7.032;2023-05-08T02:51:55;14.80;99.90
34784;DHT22;20998;51.388;7.032;2023-05-08T02:54:31;15.00;99.90
34784;DHT22;20998;51.388;7.032;2023-05-08T02:57:30;14.80;99.90
34784;DHT22;20998;51.388;7.032;2023-05-08T03:00:23;14.90;99.90
34784;DHT22;20998;51.388;7.032;2023-05-08T03:05:19;14.90;99.90
34784;DHT22;20998;51.388;7.032;2023-05-08T03:07:51;14.90;99.90
34784;DHT22;20998;51.388;7.032;2023-05-08T03:10:21;14.90;99.90
34784;DHT22;20998;51.388;7.032;2023-05-08T03:12:51;14.80;99.90
34784;DHT22;20998;51.388;7.032;2023-05-08T03:15:24;14.90;99.90
34784;DHT22;20998;51.388;7.032;2023-05-08T03:17:56;14.90;99.90
34784;DHT22;20998;51.388;7.032;2023-05-08T03:20:25;14.80;99.90
34784;DHT22;20998;51.388;7.032;2023-05-08T03:22:53;14.80;99.90
34784;DHT22;20998;51.388;7.032;2023-05-08T03:27:48;14.80;99.90
34784;DHT22;20998;51.388;7.032;2023-05-08T03:32:44;14.80;99.90
34784;DHT22;20998;51.388;7.032;2023-05-08T03:40:03;14.60;99.90
34784;DHT22;20998;51.388;7.032;2023-05-08T03:42:30;14.70;99.90
34784;DHT22;20998;51.388;7.032;2023-05-08T03:44:56;14.80;99.90
34784;DHT22;20998;51.388;7.032;2023-05-08T03:47:23;14.70;99.90
34784;DHT22;20998;51.388;7.032;2023-05-08T03:59:51;14.60;99.90
34784;DHT22;20998;51.388;7.032;2023-05-08T04:02:33;14.90;99.90
34784;DHT22;20998;51.388;7.032;2023-05-08T04:08:02;14.70;99.90
34784;DHT22;20998;51.388;7.032;2023-05-08T04:10:41;14.60;99.90
34784;DHT22;20998;51.388;7.032;2023-05-08T04:13:12;14.60;99.90
34784;DHT22;20998;51.388;7.032;2023-05-08T04:18:17;14.60;99.90
34784;DHT22;20998;51.388;7.032;2023-05-08T04:20:47;14.50;99.90
34784;DHT22;20998;51.388;7.032;2023-05-08T04:23:16;14.60;99.90
34784;DHT22;20998;51.388;7.032;2023-05-08T04:25:43;14.60;99.90
34784;DHT22;20998;51.388;7.032;2023-05-08T04:28:10;14.60;99.90
34784;DHT22;20998;51.388;7.032;2023-05-08T04:33:06;14.60;99.90
34784;DHT22;20998;51.388;7.032;2023-05-08T04:35:33;14.60;99.90
34784;DHT22;20998;51.388;7.032;2023-05-08T04:50:09;14.90;99.90
34784;DHT22;20998;51.388;7.032;2023-05-08T04:59:53;14.60;99.90
34784;DHT22;20998;51.388;7.032;2023-05-08T05:09:37;14.60;99.90
34784;DHT22;20998;51.388;7.032;2023-05-08T05:12:04;14.60;99.90
34784;DHT22;20998;51.388;7.032;2023-05-08T05:24:14;14.90;99.90
34784;DHT22;20998;51.388;7.032;2023-05-08T05:26:39;14.60;99.90
34784;DHT22;20998;51.388;7.032;2023-05-08T05:29:05;14.80;99.90
34784;DHT22;20998;51.388;7.032;2023-05-08T05:33:57;14.80;99.90
34784;DHT22;20998;51.388;7.032;2023-05-08T05:36:22;14.40;99.90
34784;DHT22;20998;51.388;7.032;2023-05-08T05:41:14;15.00;99.90
34784;DHT22;20998;51.388;7.032;2023-05-08T05:46:07;15.00;99.90
34784;DHT22;20998;51.388;7.032;2023-05-08T05:50:59;15.10;99.90
34784;DHT22;20998;51.388;7.032;2023-05-08T06:05:36;15.20;99.90
34784;DHT22;20998;51.388;7.032;2023-05-08T06:12:54;15.40;99.90
34784;DHT22;20998;51.388;7.032;2023-05-08T06:15:20;15.50;99.90
34784;DHT22;20998;51.388;7.032;2023-05-08T06:22:38;15.60;99.90
34784;DHT22;20998;51.388;7.032;2023-05-08T06:25:05;15.50;99.90
34784;DHT22;20998;51.388;7.032;2023-05-08T06:37:18;15.60;99.90
34784;DHT22;20998;51.388;7.032;2023-05-08T07:47:57;17.00;99.90
34784;DHT22;20998;51.388;7.032;2023-05-08T07:50:24;17.00;99.90
34784;DHT22;20998;51.388;7.032;2023-05-08T07:55:18;17.10;99.90
34784;DHT22;20998;51.388;7.032;2023-05-08T08:00:12;17.20;99.90
34784;DHT22;20998;51.388;7.032;2023-05-08T08:05:04;17.50;99.90
34784;DHT22;20998;51.388;7.032;2023-05-08T08:39:09;18.60;99.90
34784;DHT22;20998;51.388;7.032;2023-05-08T08:48:55;19.00;99.90
34784;DHT22;20998;51.388;7.032;2023-05-08T08:51:38;19.30;99.90
34784;DHT22;20998;51.388;7.032;2023-05-08T08:56:33;19.40;99.90
34784;DHT22;20998;51.388;7.032;2023-05-08T09:13:38;20.00;99.90
34784;DHT22;20998;51.388;7.032;2023-05-08T09:16:04;20.00;99.90
34784;DHT22;20998;51.388;7.032;2023-05-08T09:30:56;19.70;99.90
34784;DHT22;20998;51.388;7.032;2023-05-08T09:33:28;19.90;99.90
34784;DHT22;20998;51.388;7.032;2023-05-08T09:35:55;19.60;99.90
34784;DHT22;20998;51.388;7.032;2023-05-08T09:38:39;19.50;99.90
34784;DHT22;20998;51.388;7.032;2023-05-08T09:41:13;19.40;99.90
34784;DHT22;20998;51.388;7.032;2023-05-08T09:43:41;19.30;99.90
34784;DHT22;20998;51.388;7.032;2023-05-08T09:46:22;19.40;99.90
34784;DHT22;20998;51.388;7.032;2023-05-08T09:56:07;19.10;99.90
34784;DHT22;20998;51.388;7.032;2023-05-08T09:58:40;19.00;99.90
34784;DHT22;20998;51.388;7.032;2023-05-08T10:01:27;19.00;99.90
34784;DHT22;20998;51.388;7.032;2023-05-08T10:11:14;19.00;99.90
34784;DHT22;20998;51.388;7.032;2023-05-08T10:16:07;19.10;99.90
34784;DHT22;20998;51.388;7.032;2023-05-08T10:18:36;19.10;99.90
34784;DHT22;20998;51.388;7.032;2023-05-08T10:21:05;19.20;99.90
34784;DHT22;20998;51.388;7.032;2023-05-08T10:23:33;19.20;99.90
34784;DHT22;20998;51.388;7.032;2023-05-08T10:26:06;19.20;99.90
34784;DHT22;20998;51.388;7.032;2023-05-08T10:31:06;19.20;99.90
34784;DHT22;20998;51.388;7.032;2023-05-08T10:33:33;19.20;99.90
34784;DHT22;20998;51.388;7.032;2023-05-08T10:40:59;19.20;99.90
34784;DHT22;20998;51.388;7.032;2023-05-08T10:43:28;19.40;99.90
34784;DHT22;20998;51.388;7.032;2023-05-08T10:45:54;19.40;99.90
34784;DHT22;20998;51.388;7.032;2023-05-08T10:51:07;19.60;99.90
34784;DHT22;20998;51.388;7.032;2023-05-08T10:54:01;19.60;99.90
34784;DHT22;20998;51.388;7.032;2023-05-08T10:58:56;19.80;99.90
34784;DHT22;20998;51.388;7.032;2023-05-08T11:01:23;19.80;99.90
34784;DHT22;20998;51.388;7.032;2023-05-08T11:08:49;20.10;99.90
34784;DHT22;20998;51.388;7.032;2023-05-08T11:11:36;20.20;99.90
34784;DHT22;20998;51.388;7.032;2023-05-08T11:19:23;20.40;99.90
34784;DHT22;20998;51.388;7.032;2023-05-08T11:22:21;20.50;99.90
34784;DHT22;20998;51.388;7.032;2023-05-08T11:25:01;20.70;99.90
34784;DHT22;20998;51.388;7.032;2023-05-08T11:38:23;21.30;99.90
34784;DHT22;20998;51.388;7.032;2023-05-08T11:43:45;21.40;99.90
34784;DHT22;20998;51.388;7.032;2023-05-08T11:46:19;21.60;99.90
34784;DHT22;20998;51.388;7.032;2023-05-08T11:53:38;22.40;99.90
34784;DHT22;20998;51.388;7.032;2023-05-08T11:56:05;22.60;99.90
34784;DHT22;20998;51.388;7.032;2023-05-08T11:58:30;23.20;99.90
34784;DHT22;20998;51.388;7.032;2023-05-08T12:03:23;23.30;99.90
34784;DHT22;20998;51.388;7.032;2023-05-08T12:05:55;23.50;99.90
34784;DHT22;20998;51.388;7.032;2023-05-08T12:10:49;23.40;99.90
34784;DHT22;20998;51.388;7.032;2023-05-08T12:13:20;23.60;99.90
34784;DHT22;20998;51.388;7.032;2023-05-08T12:15:46;23.30;99.90
34784;DHT22;20998;51.388;7.032;2023-05-08T12:18:13;23.50;99.90
34784;DHT22;20998;51.388;7.032;2023-05-08T12:20:39;23.20;99.90
34784;DHT22;20998;51.388;7.032;2023-05-08T12:25:31;23.30;99.90
34784;DHT22;20998;51.388;7.032;2023-05-08T12:27:57;23.30;99.90
34784;DHT22;20998;51.388;7.032;2023-05-08T12:30:24;23.20;99.90
34784;DHT22;20998;51.388;7.032;2023-05-08T12:35:16;23.30;99.90
34784;DHT22;20998;51.388;7.032;2023-05-08T12:37:44;23.40;99.90
34784;DHT22;20998;51.388;7.032;2023-05-08T12:40:33;23.10;99.90
34784;DHT22;20998;51.388;7.032;2023-05-08T12:43:00;23.20;99.90
34784;DHT22;20998;51.388;7.032;2023-05-08T12:45:28;23.60;99.90
34784;DHT22;20998;51.388;7.032;2023-05-08T12:48:01;23.30;99.90
34784;DHT22;20998;51.388;7.032;2023-05-08T12:50:28;23.20;99.90
34784;DHT22;20998;51.388;7.032;2023-05-08T12:53:01;23.20;99.90
34784;DHT22;20998;51.388;7.032;2023-05-08T12:55:29;23.10;99.90
34784;DHT22;20998;51.388;7.032;2023-05-08T12:58:08;23.10;99.90
34784;DHT22;20998;51.388;7.032;2023-05-08T13:03:01;23.30;99.90
34784;DHT22;20998;51.388;7.032;2023-05-08T13:08:01;23.00;99.90
34784;DHT22;20998;51.388;7.032;2023-05-08T13:15:37;22.90;99.90
34784;DHT22;20998;51.388;7.032;2023-05-08T13:18:03;22.80;99.90
34784;DHT22;20998;51.388;7.032;2023-05-08T13:30:13;22.40;99.90
34784;DHT22;20998;51.388;7.032;2023-05-08T13:32:39;22.50;99.90
34784;DHT22;20998;51.388;7.032;2023-05-08T13:35:05;22.60;99.90
34784;DHT22;20998;51.388;7.032;2023-05-08T13:37:31;22.40;99.90
34784;DHT22;20998;51.388;7.032;2023-05-08T13:47:14;22.40;99.90
34784;DHT22;20998;51.388;7.032;2023-05-08T13:52:06;22.40;99.90
34784;DHT22;20998;51.388;7.032;2023-05-08T13:54:32;22.60;99.90
34784;DHT22;20998;51.388;7.032;2023-05-08T14:01:50;22.50;99.90
34784;DHT22;20998;51.388;7.032;2023-05-08T14:04:15;21.90;99.90
34784;DHT22;20998;51.388;7.032;2023-05-08T14:11:33;22.00;99.90
34784;DHT22;20998;51.388;7.032;2023-05-08T14:16:24;22.60;99.90
34784;DHT22;20998;51.388;7.032;2023-05-08T14:23:42;22.30;99.90
34784;DHT22;20998;51.388;7.032;2023-05-08T14:26:08;22.60;99.90
34784;DHT22;20998;51.388;7.032;2023-05-08T14:33:26;22.50;99.90
34784;DHT22;20998;51.388;7.032;2023-05-08T14:40:44;22.70;99.90
34784;DHT22;20998;51.388;7.032;2023-05-08T14:45:35;23.10;99.90
34784;DHT22;20998;51.388;7.032;2023-05-08T14:52:53;23.00;99.90
34784;DHT22;20998;51.388;7.032;2023-05-08T14:57:48;23.60;99.90
34784;DHT22;20998;51.388;7.032;2023-05-08T15:00:15;23.70;99.90
34784;DHT22;20998;51.388;7.032;2023-05-08T15:05:08;24.10;99.90
34784;DHT22;20998;51.388;7.032;2023-05-08T15:07:34;24.50;99.90
34784;DHT22;20998;51.388;7.032;2023-05-08T15:12:25;24.40;99.90
34784;DHT22;20998;51.388;7.032;2023-05-08T15:14:51;24.70;99.90
34784;DHT22;20998;51.388;7.032;2023-05-08T15:22:13;24.90;99.90
34784;DHT22;20998;51.388;7.032;2023-05-08T15:24:39;25.10;99.90
34784;DHT22;20998;51.388;7.032;2023-05-08T15:29:31;24.70;99.90
34784;DHT22;20998;51.388;7.032;2023-05-08T15:34:23;25.00;99.90
34784;DHT22;20998;51.388;7.032;2023-05-08T15:44:06;25.10;99.90
34784;DHT22;20998;51.388;7.032;2023-05-08T15:48:58;25.00;99.90
34784;DHT22;20998;51.388;7.032;2023-05-08T15:53:50;24.50;99.90
34784;DHT22;20998;51.388;7.032;2023-05-08T15:58:45;24.60;99.90
34784;DHT22;20998;51.388;7.032;2023-05-08T16:01:11;24.20;99.90
34784;DHT22;20998;51.388;7.032;2023-05-08T16:08:28;23.80;99.90
34784;DHT22;20998;51.388;7.032;2023-05-08T16:10:55;23.80;99.90
34784;DHT22;20998;51.388;7.032;2023-05-08T16:15:46;23.70;99.90
34784;DHT22;20998;51.388;7.032;2023-05-08T16:20:41;23.70;99.90
34784;DHT22;20998;51.388;7.032;2023-05-08T16:23:07;23.30;99.90
34784;DHT22;20998;51.388;7.032;2023-05-08T16:30:25;23.30;99.90
34784;DHT22;20998;51.388;7.032;2023-05-08T16:37:43;22.90;99.90
34784;DHT22;20998;51.388;7.032;2023-05-08T16:42:35;22.50;99.90
34784;DHT22;20998;51.388;7.032;2023-05-08T16:45:06;23.80;99.90
34784;DHT22;20998;51.388;7.032;2023-05-08T17:24:07;21.20;99.90
34784;DHT22;20998;51.388;7.032;2023-05-08T17:26:33;21.10;99.90
34784;DHT22;20998;51.388;7.032;2023-05-08T17:38:43;20.80;99.90
34784;DHT22;20998;51.388;7.032;2023-05-08T17:41:13;20.80;99.90
34784;DHT22;20998;51.388;7.032;2023-05-08T17:46:06;20.70;99.90
34784;DHT22;20998;51.388;7.032;2023-05-08T17:48:32;20.60;99.90
34784;DHT22;20998;51.388;7.032;2023-05-08T18:22:43;19.80;99.90
34784;DHT22;20998;51.388;7.032;2023-05-08T18:42:12;19.30;99.90
34784;DHT22;20998;51.388;7.032;2023-05-08T18:47:06;19.20;99.90
34784;DHT22;20998;51.388;7.032;2023-05-08T19:04:09;18.90;99.90
34784;DHT22;20998;51.388;7.032;2023-05-08T19:06:35;18.80;99.90
34784;DHT22;20998;51.388;7.032;2023-05-08T19:23:38;18.40;99.90
34784;DHT22;20998;51.388;7.032;2023-05-08T19:26:04;18.50;99.90
34784;DHT22;20998;51.388;7.032;2023-05-08T19:43:05;18.00;99.90
34784;DHT22;20998;51.388;7.032;2023-05-08T19:45:31;17.90;99.90
34784;DHT22;20998;51.388;7.032;2023-05-08T19:50:23;17.60;99.90
34784;DHT22;20998;51.388;7.032;2023-05-08T19:55:15;17.60;99.90
34784;DHT22;20998;51.388;7.032;2023-05-08T20:00:07;17.50;99.90
34784;DHT22;20998;51.388;7.032;2023-05-08T21:03:26;16.60;99.90
34784;DHT22;20998;51.388;7.032;2023-05-08T21:05:53;16.60;99.90
34784;DHT22;20998;51.388;7.032;2023-05-08T21:08:23;16.70;99.90
34784;DHT22;20998;51.388;7.032;2023-05-08T21:10:49;16.50;99.90
34784;DHT22;20998;51.388;7.032;2023-05-08T21:23:02;16.40;99.90
34784;DHT22;20998;51.388;7.032;2023-05-08T21:30:20;16.50;99.90
34784;DHT22;20998;51.388;7.032;2023-05-08T21:40:05;16.50;99.90
34784;DHT22;20998;51.388;7.032;2023-05-08T21:49:53;16.30;99.90
34784;DHT22;20998;51.388;7.032;2023-05-08T22:07:00;16.50;99.90
34784;DHT22;20998;51.388;7.032;2023-05-08T22:09:26;16.20;99.90
34784;DHT22;20998;51.388;7.032;2023-05-08T22:16:43;16.30;99.90
34784;DHT22;20998;51.388;7.032;2023-05-08T22:24:01;16.20;99.90
34784;DHT22;20998;51.388;7.032;2023-05-08T22:36:11;16.20;99.90
34784;DHT22;20998;51.388;7.032;2023-05-08T22:38:38;16.20;99.90
34784;DHT22;20998;51.388;7.032;2023-05-08T22:50:49;16.30;99.90
34784;DHT22;20998;51.388;7.032;2023-05-08T23:00:34;16.00;99.90
34784;DHT22;20998;51.388;7.032;2023-05-08T23:07:52;16.40;99.90
34784;DHT22;20998;51.388;7.032;2023-05-08T23:15:10;16.20;99.90
34784;DHT22;20998;51.388;7.032;2023-05-08T23:20:02;16.40;99.90
34784;DHT22;20998;51.388;7.032;2023-05-08T23:32:12;16.20;99.90
34784;DHT22;20998;51.388;7.032;2023-05-08T23:39:32;16.20;99.90
34784;DHT22;20998;51.388;7.032;2023-05-08T23:49:23;16.20;99.90
